createdAt,value
2019-03-29T00:00:32.500Z,102572.00
2019-03-29T00:03:04.877Z,102569.00
2019-03-29T00:05:37.171Z,102579.00
2019-03-29T00:08:09.553Z,102576.00
2019-03-29T00:10:41.851Z,102570.00
2019-03-29T00:13:14.741Z,102570.00
2019-03-29T00:15:47.327Z,102574.00
2019-03-29T00:18:19.547Z,102567.00
2019-03-29T00:20:51.963Z,102564.00
2019-03-29T00:23:24.200Z,102557.00
2019-03-29T00:25:56.618Z,102562.00
2019-03-29T00:28:28.943Z,102558.00
2019-03-29T00:31:01.189Z,102553.00
2019-03-29T00:33:33.551Z,102551.00
2019-03-29T00:36:05.833Z,102555.00
2019-03-29T00:38:38.161Z,102556.00
2019-03-29T00:41:11.598Z,102553.00
2019-03-29T00:43:43.851Z,102545.00
2019-03-29T00:46:16.125Z,102547.00
2019-03-29T00:48:48.417Z,102546.00
2019-03-29T00:51:20.677Z,102541.00
2019-03-29T00:53:54.018Z,102533.00
2019-03-29T00:56:26.308Z,102539.00
2019-03-29T00:58:58.612Z,102524.00
2019-03-29T01:01:30.899Z,102530.00
2019-03-29T01:04:03.296Z,102528.00
2019-03-29T01:06:35.497Z,102523.00
2019-03-29T01:09:08.650Z,102521.00
2019-03-29T01:11:41.289Z,102527.00
2019-03-29T01:14:13.504Z,102520.00
2019-03-29T01:16:45.762Z,102526.00
2019-03-29T01:19:18.235Z,102517.00
2019-03-29T01:21:50.481Z,102518.00
2019-03-29T01:24:22.747Z,102514.00
2019-03-29T01:26:55.093Z,102504.00
2019-03-29T01:29:27.392Z,102509.00
2019-03-29T01:31:59.687Z,102508.00
2019-03-29T01:34:32.093Z,102506.00
2019-03-29T01:37:04.370Z,102506.00
2019-03-29T01:39:36.674Z,102504.00
2019-03-29T01:42:08.908Z,102503.00
2019-03-29T01:44:41.282Z,102509.00
2019-03-29T01:47:13.628Z,102506.00
2019-03-29T01:49:46.000Z,102507.00
2019-03-29T01:52:18.280Z,102498.00
2019-03-29T01:54:50.476Z,102505.00
2019-03-29T01:57:22.764Z,102505.00
2019-03-29T01:59:55.030Z,102500.00
2019-03-29T02:02:27.395Z,102496.00
2019-03-29T02:05:00.231Z,102504.00
2019-03-29T02:07:33.394Z,102505.00
2019-03-29T02:10:07.278Z,102497.00
2019-03-29T02:12:39.577Z,102490.00
2019-03-29T02:15:12.225Z,102505.00
2019-03-29T02:17:44.441Z,102493.00
2019-03-29T02:20:16.854Z,102488.00
2019-03-29T02:22:49.216Z,102494.00
2019-03-29T02:25:21.911Z,102487.00
2019-03-29T02:27:54.189Z,102486.00
2019-03-29T02:30:26.440Z,102487.00
2019-03-29T02:32:58.992Z,102482.00
2019-03-29T02:35:31.306Z,102477.00
2019-03-29T02:38:03.619Z,102482.00
2019-03-29T02:40:35.939Z,102480.00
2019-03-29T02:43:08.294Z,102475.00
2019-03-29T02:45:40.510Z,102479.00
2019-03-29T02:48:12.774Z,102475.00
2019-03-29T02:50:46.164Z,102467.00
2019-03-29T02:53:18.527Z,102476.00
2019-03-29T02:55:50.806Z,102476.00
2019-03-29T02:58:23.147Z,102475.00
2019-03-29T03:00:55.421Z,102474.00
2019-03-29T03:03:27.787Z,102477.00
2019-03-29T03:06:18.875Z,102476.00
2019-03-29T03:08:51.274Z,102472.00
2019-03-29T03:11:23.487Z,102470.00
2019-03-29T03:13:55.817Z,102476.00
2019-03-29T03:16:29.081Z,102474.00
2019-03-29T03:19:01.538Z,102473.00
2019-03-29T03:21:33.870Z,102483.00
2019-03-29T03:24:06.222Z,102477.00
2019-03-29T03:26:38.580Z,102469.00
2019-03-29T03:29:10.942Z,102468.00
2019-03-29T03:31:43.265Z,102474.00
2019-03-29T03:34:15.600Z,102471.00
2019-03-29T03:36:47.814Z,102484.00
2019-03-29T03:39:31.433Z,102480.00
2019-03-29T03:41:53.998Z,102480.00
2019-03-29T03:44:26.313Z,102484.00
2019-03-29T03:46:58.651Z,102483.00
2019-03-29T03:49:30.898Z,102484.00
2019-03-29T03:52:03.735Z,102492.00
2019-03-29T03:54:35.994Z,102481.00
2019-03-29T03:57:08.947Z,102482.00
2019-03-29T03:59:42.115Z,102480.00
2019-03-29T04:02:14.487Z,102479.00
2019-03-29T04:04:46.758Z,102477.00
2019-03-29T04:07:19.211Z,102473.00
2019-03-29T04:09:51.779Z,102470.00
2019-03-29T04:12:24.107Z,102474.00
2019-03-29T04:14:56.411Z,102468.00
2019-03-29T04:17:28.747Z,102468.00
2019-03-29T04:20:04.440Z,102464.00
2019-03-29T04:22:36.723Z,102461.00
2019-03-29T04:25:09.292Z,102464.00
2019-03-29T04:27:41.630Z,102467.00
2019-03-29T04:30:14.402Z,102471.00
2019-03-29T04:32:46.780Z,102461.00
2019-03-29T04:35:19.201Z,102463.00
2019-03-29T04:37:51.458Z,102465.00
2019-03-29T04:40:24.856Z,102462.00
2019-03-29T04:42:57.205Z,102473.00
2019-03-29T04:45:29.637Z,102464.00
2019-03-29T04:48:01.885Z,102464.00
2019-03-29T04:50:34.195Z,102464.00
2019-03-29T04:53:06.476Z,102458.00
2019-03-29T04:55:38.758Z,102460.00
2019-03-29T04:58:11.231Z,102463.00
2019-03-29T05:00:43.580Z,102465.00
2019-03-29T05:03:15.921Z,102467.00
2019-03-29T05:05:48.350Z,102461.00
2019-03-29T05:08:20.719Z,102460.00
2019-03-29T05:10:53.065Z,102459.00
2019-03-29T05:13:25.336Z,102457.00
2019-03-29T05:15:57.685Z,102463.00
2019-03-29T05:18:30.149Z,102462.00
2019-03-29T05:21:02.583Z,102439.00
2019-03-29T05:23:35.017Z,102459.00
2019-03-29T05:26:07.555Z,102470.00
2019-03-29T05:28:39.866Z,102462.00
2019-03-29T05:31:12.236Z,102460.00
2019-03-29T05:33:44.699Z,102455.00
2019-03-29T05:36:16.945Z,102449.00
2019-03-29T05:38:49.282Z,102453.00
2019-03-29T05:41:21.565Z,102461.00
2019-03-29T05:43:53.817Z,102457.00
2019-03-29T05:46:26.177Z,102448.00
2019-03-29T05:48:58.500Z,102455.00
2019-03-29T05:51:30.927Z,102449.00
2019-03-29T05:54:03.275Z,102450.00
2019-03-29T05:56:35.581Z,102450.00
2019-03-29T05:59:07.957Z,102445.00
2019-03-29T06:01:40.307Z,102435.00
2019-03-29T06:04:12.613Z,102442.00
2019-03-29T06:06:45.049Z,102436.00
2019-03-29T06:09:17.237Z,102437.00
2019-03-29T06:11:49.532Z,102441.00
2019-03-29T06:14:21.989Z,102446.00
2019-03-29T06:16:54.373Z,102445.00
2019-03-29T06:19:26.761Z,102444.00
2019-03-29T06:22:00.144Z,102443.00
2019-03-29T06:24:32.431Z,102438.00
2019-03-29T06:27:04.869Z,102436.00
2019-03-29T06:29:37.363Z,102445.00
2019-03-29T06:32:09.768Z,102444.00
2019-03-29T06:34:43.976Z,102434.00
2019-03-29T06:37:21.120Z,102441.00
2019-03-29T06:39:55.185Z,102429.00
2019-03-29T06:42:27.511Z,102431.00
2019-03-29T06:44:59.971Z,102430.00
2019-03-29T06:47:49.794Z,102427.00
2019-03-29T06:50:22.185Z,102438.00
2019-03-29T06:52:54.450Z,102432.00
2019-03-29T06:55:26.695Z,102423.00
2019-03-29T06:58:00.057Z,102428.00
2019-03-29T07:00:32.500Z,102436.00
2019-03-29T07:03:04.779Z,102425.00
2019-03-29T07:05:37.175Z,102437.00
2019-03-29T07:08:09.721Z,102429.00
2019-03-29T07:10:41.997Z,102433.00
2019-03-29T07:13:14.399Z,102431.00
2019-03-29T07:15:46.695Z,102427.00
2019-03-29T07:18:19.115Z,102426.00
2019-03-29T07:20:51.407Z,102422.00
2019-03-29T07:23:23.765Z,102426.00
2019-03-29T07:25:56.525Z,102419.00
2019-03-29T07:28:29.085Z,102429.00
2019-03-29T07:31:01.372Z,102430.00
2019-03-29T07:33:34.191Z,102431.00
2019-03-29T07:36:06.576Z,102424.00
2019-03-29T07:38:39.007Z,102425.00
2019-03-29T07:41:11.331Z,102430.00
2019-03-29T07:43:43.774Z,102423.00
2019-03-29T07:46:17.251Z,102426.00
2019-03-29T07:48:54.731Z,102418.00
2019-03-29T07:51:27.178Z,102421.00
2019-03-29T07:53:59.587Z,102421.00
2019-03-29T07:56:32.019Z,102416.00
2019-03-29T07:59:04.337Z,102413.00
2019-03-29T08:01:36.774Z,102419.00
2019-03-29T08:04:09.463Z,102414.00
2019-03-29T08:06:41.801Z,102417.00
2019-03-29T08:09:22.345Z,102411.00
2019-03-29T08:11:48.316Z,102415.00
2019-03-29T08:14:31.854Z,102420.00
2019-03-29T08:17:04.281Z,102408.00
2019-03-29T08:19:37.370Z,102417.00
2019-03-29T08:22:09.964Z,102420.00
2019-03-29T08:24:42.657Z,102430.00
2019-03-29T08:27:15.008Z,102414.00
2019-03-29T08:29:47.489Z,102414.00
2019-03-29T08:32:25.730Z,102411.00
2019-03-29T08:34:58.154Z,102412.00
2019-03-29T08:37:30.444Z,102413.00
2019-03-29T08:40:02.727Z,102416.00
2019-03-29T08:42:35.179Z,102413.00
2019-03-29T08:45:09.447Z,102405.00
2019-03-29T08:47:41.856Z,102413.00
2019-03-29T08:50:14.317Z,102411.00
2019-03-29T08:52:46.640Z,102406.00
2019-03-29T08:55:18.870Z,102415.00
2019-03-29T08:57:51.258Z,102411.00
2019-03-29T09:00:33.873Z,102398.00
2019-03-29T09:03:06.559Z,102388.00
2019-03-29T09:05:39.356Z,102384.00
2019-03-29T09:08:13.244Z,102381.00
2019-03-29T09:10:45.650Z,102375.00
2019-03-29T09:13:17.958Z,102376.00
2019-03-29T09:15:50.287Z,102381.00
2019-03-29T09:18:25.793Z,102385.00
2019-03-29T09:20:56.594Z,102378.00
2019-03-29T09:23:30.270Z,102371.00
2019-03-29T09:26:02.936Z,102364.00
2019-03-29T09:28:35.326Z,102370.00
2019-03-29T09:31:07.988Z,102370.00
2019-03-29T09:33:40.240Z,102359.00
2019-03-29T09:36:12.595Z,102361.00
2019-03-29T09:38:45.037Z,102358.00
2019-03-29T09:41:18.771Z,102366.00
2019-03-29T09:43:54.037Z,102360.00
2019-03-29T09:46:25.146Z,102359.00
2019-03-29T09:48:57.384Z,102357.00
2019-03-29T09:51:29.658Z,102355.00
2019-03-29T09:54:01.909Z,102351.00
2019-03-29T09:56:39.229Z,102347.00
2019-03-29T09:59:08.224Z,102356.00
2019-03-29T10:01:40.611Z,102346.00
2019-03-29T10:04:12.866Z,102342.00
2019-03-29T10:06:45.363Z,102332.00
2019-03-29T10:09:17.591Z,102337.00
2019-03-29T10:11:50.026Z,102340.00
2019-03-29T10:14:23.449Z,102334.00
2019-03-29T10:16:55.773Z,102334.00
2019-03-29T10:19:29.636Z,102337.00
2019-03-29T10:22:03.051Z,102328.00
2019-03-29T10:24:36.541Z,102325.00
2019-03-29T10:27:08.853Z,102325.00
2019-03-29T10:29:41.221Z,102323.00
2019-03-29T10:32:15.220Z,102321.00
2019-03-29T10:34:47.452Z,102319.00
2019-03-29T10:37:19.832Z,102317.00
2019-03-29T10:39:52.193Z,102313.00
2019-03-29T10:42:24.464Z,102313.00
2019-03-29T10:44:57.860Z,102300.00
2019-03-29T10:47:43.263Z,102308.00
2019-03-29T10:50:07.189Z,102299.00
2019-03-29T10:52:39.685Z,102296.00
2019-03-29T10:55:12.030Z,102296.00
2019-03-29T10:57:44.302Z,102295.00
2019-03-29T11:00:24.815Z,102291.00
2019-03-29T11:02:57.175Z,102284.00
2019-03-29T11:05:30.829Z,102277.00
2019-03-29T11:08:03.327Z,102281.00
2019-03-29T11:10:37.049Z,102285.00
2019-03-29T11:13:13.017Z,102276.00
2019-03-29T11:15:43.423Z,102277.00
2019-03-29T11:18:15.781Z,102283.00
2019-03-29T11:20:50.195Z,102269.00
2019-03-29T11:23:22.498Z,102264.00
2019-03-29T11:25:54.883Z,102265.00
2019-03-29T11:28:28.601Z,102267.00
2019-03-29T11:31:00.897Z,102266.00
2019-03-29T11:33:33.431Z,102257.00
2019-03-29T11:36:05.779Z,102256.00
2019-03-29T11:38:38.071Z,102238.00
2019-03-29T11:41:10.351Z,102236.00
2019-03-29T11:43:42.668Z,102248.00
2019-03-29T11:46:15.024Z,102244.00
2019-03-29T11:48:47.337Z,102239.00
2019-03-29T11:51:20.169Z,102248.00
2019-03-29T11:53:54.702Z,102245.00
2019-03-29T11:56:27.041Z,102237.00
2019-03-29T11:58:59.481Z,102240.00
2019-03-29T12:01:31.839Z,102234.00
2019-03-29T12:04:04.243Z,102233.00
2019-03-29T12:06:36.535Z,102228.00
2019-03-29T12:09:09.767Z,102232.00
2019-03-29T12:11:42.117Z,102226.00
2019-03-29T12:14:14.442Z,102226.00
2019-03-29T12:16:46.802Z,102228.00
2019-03-29T12:19:25.869Z,102234.00
2019-03-29T12:21:59.830Z,102224.00
2019-03-29T12:24:32.151Z,102219.00
2019-03-29T12:27:04.640Z,102213.00
2019-03-29T12:29:36.993Z,102214.00
2019-03-29T12:32:09.243Z,102208.00
2019-03-29T12:34:41.492Z,102193.00
2019-03-29T12:37:13.748Z,102194.00
2019-03-29T12:39:46.055Z,102205.00
2019-03-29T12:42:19.917Z,102189.00
2019-03-29T12:44:52.765Z,102196.00
2019-03-29T12:47:25.188Z,102185.00
2019-03-29T12:49:57.536Z,102179.00
2019-03-29T12:52:29.818Z,102169.00
2019-03-29T12:55:02.180Z,102155.00
2019-03-29T12:57:34.722Z,102158.00
2019-03-29T13:00:08.953Z,102168.00
2019-03-29T13:02:41.237Z,102161.00
2019-03-29T13:05:13.781Z,102158.00
2019-03-29T13:07:46.072Z,102155.00
2019-03-29T13:10:18.724Z,102149.00
2019-03-29T13:12:51.026Z,102144.00
2019-03-29T13:15:23.418Z,102137.00
2019-03-29T13:17:55.748Z,102134.00
2019-03-29T13:20:28.119Z,102130.00
2019-03-29T13:23:00.428Z,102133.00
2019-03-29T13:25:32.681Z,102119.00
2019-03-29T13:28:04.924Z,102121.00
2019-03-29T13:30:37.407Z,102122.00
2019-03-29T13:33:09.657Z,102107.00
2019-03-29T13:35:44.677Z,102104.00
2019-03-29T13:38:20.466Z,102109.00
2019-03-29T13:40:51.931Z,102102.00
2019-03-29T13:43:24.243Z,102100.00
2019-03-29T13:45:56.523Z,102103.00
2019-03-29T13:48:28.806Z,102092.00
2019-03-29T13:51:01.082Z,102091.00
2019-03-29T13:53:33.504Z,102091.00
2019-03-29T13:56:05.864Z,102086.00
2019-03-29T13:58:38.144Z,102083.00
2019-03-29T14:01:10.632Z,102080.00
2019-03-29T14:03:43.186Z,102078.00
2019-03-29T14:06:15.555Z,102070.00
2019-03-29T14:08:47.866Z,102070.00
2019-03-29T14:11:20.234Z,102061.00
2019-03-29T14:13:52.479Z,102062.00
2019-03-29T14:16:24.808Z,102053.00
2019-03-29T14:18:57.020Z,102047.00
2019-03-29T14:21:29.278Z,102031.00
2019-03-29T14:24:01.540Z,102042.00
2019-03-29T14:26:34.916Z,102035.00
2019-03-29T14:29:07.141Z,102035.00
2019-03-29T14:31:39.415Z,102030.00
2019-03-29T14:34:11.672Z,102027.00
2019-03-29T14:36:43.911Z,102023.00
2019-03-29T14:39:16.115Z,102033.00
2019-03-29T14:41:49.083Z,102026.00
2019-03-29T14:44:21.339Z,102023.00
2019-03-29T14:46:53.807Z,102021.00
2019-03-29T14:49:26.058Z,102016.00
2019-03-29T14:51:58.392Z,102011.00
2019-03-29T14:54:30.659Z,102014.00
2019-03-29T14:57:05.435Z,102012.00
2019-03-29T14:59:36.862Z,102005.00
2019-03-29T15:02:09.118Z,102003.00
2019-03-29T15:04:42.342Z,101994.00
2019-03-29T15:07:15.125Z,101995.00
2019-03-29T15:09:47.884Z,101990.00
2019-03-29T15:12:20.173Z,101990.00
2019-03-29T15:15:05.222Z,101977.00
2019-03-29T15:17:26.425Z,101983.00
2019-03-29T15:19:58.828Z,101964.00
2019-03-29T15:22:33.109Z,101968.00
2019-03-29T15:25:05.519Z,101968.00
2019-03-29T15:27:37.817Z,101974.00
2019-03-29T15:30:14.706Z,101968.00
2019-03-29T15:32:49.038Z,101967.00
2019-03-29T15:35:21.441Z,101967.00
2019-03-29T15:37:53.729Z,101962.00
2019-03-29T15:40:25.992Z,101961.00
2019-03-29T15:42:59.317Z,101956.00
2019-03-29T15:45:31.565Z,101960.00
2019-03-29T15:48:03.941Z,101954.00
2019-03-29T15:50:36.112Z,101949.00
2019-03-29T15:53:08.511Z,101948.00
2019-03-29T15:55:40.818Z,101953.00
2019-03-29T15:58:13.275Z,101954.00
2019-03-29T16:00:46.644Z,101946.00
2019-03-29T16:03:18.974Z,101953.00
2019-03-29T16:05:51.254Z,101950.00
2019-03-29T16:08:23.587Z,101942.00
2019-03-29T16:10:55.911Z,101952.00
2019-03-29T16:13:28.405Z,101937.00
2019-03-29T16:16:00.776Z,101948.00
2019-03-29T16:18:33.124Z,101943.00
2019-03-29T16:21:05.536Z,101939.00
2019-03-29T16:23:37.888Z,101935.00
2019-03-29T16:26:10.203Z,101928.00
2019-03-29T16:28:42.520Z,101939.00
2019-03-29T16:31:14.754Z,101903.00
2019-03-29T16:33:47.212Z,101921.00
2019-03-29T16:36:19.517Z,101921.00
2019-03-29T16:38:51.929Z,101912.00
2019-03-29T16:41:24.210Z,101916.00
2019-03-29T16:43:56.655Z,101915.00
2019-03-29T16:46:29.083Z,101900.00
2019-03-29T16:49:01.404Z,101908.00
2019-03-29T16:51:34.622Z,101906.00
2019-03-29T16:54:07.057Z,101911.00
2019-03-29T16:56:39.427Z,101900.00
2019-03-29T16:59:11.757Z,101901.00
2019-03-29T17:01:44.216Z,101897.00
2019-03-29T17:04:16.642Z,101889.00
2019-03-29T17:06:48.946Z,101892.00
2019-03-29T17:09:21.339Z,101895.00
2019-03-29T17:11:53.584Z,101887.00
2019-03-29T17:14:26.055Z,101887.00
2019-03-29T17:16:58.321Z,101893.00
2019-03-29T17:19:30.679Z,101895.00
2019-03-29T17:22:02.988Z,101892.00
2019-03-29T17:24:36.350Z,101890.00
2019-03-29T17:27:08.682Z,101897.00
2019-03-29T17:29:41.169Z,101892.00
2019-03-29T17:32:16.683Z,101889.00
2019-03-29T17:34:49.092Z,101890.00
2019-03-29T17:37:21.538Z,101884.00
2019-03-29T17:39:53.882Z,101889.00
2019-03-29T17:42:26.269Z,101895.00
2019-03-29T17:44:59.126Z,101885.00
2019-03-29T17:47:31.837Z,101888.00
2019-03-29T17:50:04.245Z,101877.00
2019-03-29T17:52:38.260Z,101875.00
2019-03-29T17:55:10.705Z,101873.00
2019-03-29T17:57:43.275Z,101883.00
2019-03-29T18:00:19.895Z,101882.00
2019-03-29T18:02:52.295Z,101890.00
2019-03-29T18:05:24.693Z,101885.00
2019-03-29T18:07:56.952Z,101870.00
2019-03-29T18:10:29.241Z,101886.00
2019-03-29T18:13:01.491Z,101892.00
2019-03-29T18:15:33.795Z,101882.00
2019-03-29T18:18:06.228Z,101883.00
2019-03-29T18:20:38.569Z,101886.00
2019-03-29T18:23:10.849Z,101887.00
2019-03-29T18:25:44.180Z,101890.00
2019-03-29T18:28:16.423Z,101881.00
2019-03-29T18:30:48.897Z,101881.00
2019-03-29T18:33:23.252Z,101887.00
2019-03-29T18:35:55.907Z,101875.00
2019-03-29T18:38:29.166Z,101885.00
2019-03-29T18:41:01.501Z,101882.00
2019-03-29T18:43:33.827Z,101884.00
2019-03-29T18:46:06.200Z,101881.00
2019-03-29T18:48:38.527Z,101878.00
2019-03-29T18:51:10.965Z,101875.00
2019-03-29T18:53:43.346Z,101882.00
2019-03-29T18:56:15.870Z,101877.00
2019-03-29T18:58:48.184Z,101878.00
2019-03-29T19:01:20.661Z,101874.00
2019-03-29T19:03:52.921Z,101878.00
2019-03-29T19:06:25.392Z,101878.00
2019-03-29T19:08:57.732Z,101872.00
2019-03-29T19:11:30.154Z,101877.00
2019-03-29T19:14:02.419Z,101880.00
2019-03-29T19:16:34.794Z,101886.00
2019-03-29T19:19:10.153Z,101878.00
2019-03-29T19:21:44.156Z,101872.00
2019-03-29T19:24:16.455Z,101875.00
2019-03-29T19:26:49.152Z,101876.00
2019-03-29T19:29:21.577Z,101869.00
2019-03-29T19:31:56.099Z,101874.00
2019-03-29T19:34:28.183Z,101874.00
2019-03-29T19:37:01.686Z,101864.00
2019-03-29T19:39:34.613Z,101872.00
2019-03-29T19:42:07.079Z,101865.00
2019-03-29T19:44:39.452Z,101870.00
2019-03-29T19:47:13.875Z,101874.00
2019-03-29T19:49:46.202Z,101870.00
2019-03-29T19:52:18.620Z,101870.00
2019-03-29T19:54:51.100Z,101865.00
2019-03-29T19:57:23.483Z,101878.00
2019-03-29T19:59:55.794Z,101871.00
2019-03-29T20:02:28.379Z,101873.00
2019-03-29T20:05:00.686Z,101879.00
2019-03-29T20:07:33.143Z,101870.00
2019-03-29T20:10:06.191Z,101863.00
2019-03-29T20:12:38.563Z,101876.00
2019-03-29T20:15:11.116Z,101877.00
2019-03-29T20:17:43.586Z,101870.00
2019-03-29T20:20:23.080Z,101877.00
2019-03-29T20:22:58.061Z,101863.00
2019-03-29T20:25:30.380Z,101870.00
2019-03-29T20:28:02.963Z,101861.00
2019-03-29T20:30:35.449Z,101863.00
2019-03-29T20:33:07.856Z,101865.00
2019-03-29T20:35:41.328Z,101874.00
2019-03-29T20:38:13.706Z,101870.00
2019-03-29T20:40:46.084Z,101876.00
2019-03-29T20:43:18.686Z,101874.00
2019-03-29T20:45:51.264Z,101871.00
2019-03-29T20:48:28.473Z,101870.00
2019-03-29T20:51:00.912Z,101865.00
2019-03-29T20:53:33.261Z,101865.00
2019-03-29T20:56:06.856Z,101869.00
2019-03-29T20:58:39.159Z,101861.00
2019-03-29T21:01:11.483Z,101870.00
2019-03-29T21:03:43.940Z,101859.00
2019-03-29T21:06:16.426Z,101856.00
2019-03-29T21:08:59.910Z,101858.00
2019-03-29T21:11:32.436Z,101857.00
2019-03-29T21:14:04.960Z,101851.00
2019-03-29T21:16:37.226Z,101853.00
2019-03-29T21:19:09.554Z,101852.00
2019-03-29T21:21:41.918Z,101857.00
2019-03-29T21:24:14.316Z,101846.00
2019-03-29T21:26:47.684Z,101844.00
2019-03-29T21:29:20.214Z,101844.00
2019-03-29T21:31:52.666Z,101828.00
2019-03-29T21:34:25.153Z,101836.00
2019-03-29T21:36:57.659Z,101838.00
2019-03-29T21:39:31.511Z,101834.00
2019-03-29T21:42:04.112Z,101833.00
2019-03-29T21:44:36.504Z,101839.00
2019-03-29T21:47:10.126Z,101831.00
2019-03-29T21:49:42.634Z,101825.00
2019-03-29T21:52:15.088Z,101831.00
2019-03-29T21:54:49.844Z,101709.00
2019-03-29T21:57:22.354Z,101830.00
2019-03-29T21:59:55.017Z,101825.00
2019-03-29T22:02:27.708Z,101821.00
2019-03-29T22:05:00.394Z,101815.00
2019-03-29T22:07:32.986Z,101823.00
2019-03-29T22:10:09.233Z,101818.00
2019-03-29T22:12:43.800Z,101824.00
2019-03-29T22:15:17.413Z,101817.00
2019-03-29T22:17:49.734Z,101820.00
2019-03-29T22:20:22.132Z,101810.00
2019-03-29T22:22:54.777Z,101804.00
2019-03-29T22:25:27.302Z,101805.00
2019-03-29T22:27:59.852Z,101805.00
2019-03-29T22:30:32.534Z,101797.00
2019-03-29T22:33:04.857Z,101807.00
2019-03-29T22:35:42.248Z,101803.00
2019-03-29T22:38:16.200Z,101799.00
2019-03-29T22:40:48.509Z,101800.00
2019-03-29T22:43:20.918Z,101799.00
2019-03-29T22:45:53.306Z,101796.00
2019-03-29T22:48:25.735Z,101795.00
2019-03-29T22:51:00.079Z,101793.00
2019-03-29T22:53:32.076Z,101793.00
2019-03-29T22:56:04.464Z,101792.00
2019-03-29T22:58:36.916Z,101786.00
2019-03-29T23:01:09.548Z,101782.00
2019-03-29T23:03:44.100Z,101772.00
2019-03-29T23:06:16.346Z,101776.00
2019-03-29T23:08:48.628Z,101771.00
2019-03-29T23:11:20.979Z,101765.00
2019-03-29T23:13:53.224Z,101772.00
2019-03-29T23:16:25.548Z,101767.00
2019-03-29T23:19:06.423Z,101767.00
2019-03-29T23:21:31.849Z,101773.00
2019-03-29T23:24:04.094Z,101765.00
2019-03-29T23:26:36.461Z,101773.00
2019-03-29T23:29:08.769Z,101769.00
2019-03-29T23:31:41.034Z,101767.00
2019-03-29T23:34:14.579Z,101762.00
2019-03-29T23:36:47.186Z,101755.00
2019-03-29T23:39:19.713Z,101754.00
2019-03-29T23:41:52.049Z,101756.00
2019-03-29T23:44:24.323Z,101749.00
2019-03-29T23:46:56.744Z,101748.00
2019-03-29T23:49:29.042Z,101749.00
2019-03-29T23:52:01.352Z,101744.00
2019-03-29T23:54:33.677Z,101736.00
2019-03-29T23:57:06.008Z,101747.00
2019-03-29T23:59:38.280Z,101734.00
